Terminal Aerodrome Forecast
Issued by NWS Twin Cities, MN

Home | Current Version | Previous Version | Graphics & Text | Print | Product List | Glossary On
Versions: 1 2 3 4 5 6 7 8 9 10 11 12 13 14 15 16 17 18 19 20 21 22 23 24 25 26 27 28 29 30 31
000
FTUS43 KMPX 012300
TAFMSP
TAF
KMSP 012334Z 0200/0306 28007KT P6SM SCT250
     FM020800 24005KT P6SM VCSH SCT060 OVC090
     FM021400 27006KT P6SM SCT050 BKN110
     FM021700 28009KT P6SM FEW050=

USA.gov is the U.S. government's official web portal to all federal, state and local government web resources and services.